createdAt,value
2023-05-16T00:00:38.684Z,88000.00
2023-05-16T00:01:38.718Z,87996.00
2023-05-16T00:02:38.738Z,87996.00
2023-05-16T00:03:38.745Z,87992.00
2023-05-16T00:04:38.767Z,87996.00
2023-05-16T00:05:38.715Z,87994.00
2023-05-16T00:06:38.690Z,87992.00
2023-05-16T00:07:38.707Z,87992.00
2023-05-16T00:08:38.712Z,87986.00
2023-05-16T00:09:38.701Z,87988.00
2023-05-16T00:10:38.718Z,87986.00
2023-05-16T00:11:38.702Z,87986.00
2023-05-16T00:12:38.700Z,87982.00
2023-05-16T00:13:38.696Z,87982.00
2023-05-16T00:14:38.720Z,87982.00
2023-05-16T00:15:38.719Z,87982.00
2023-05-16T00:16:38.744Z,87982.00
2023-05-16T00:17:38.757Z,87982.00
2023-05-16T00:18:38.763Z,87978.00
2023-05-16T00:19:38.712Z,87978.00
2023-05-16T00:20:38.737Z,87972.00
2023-05-16T00:21:38.708Z,87976.00
2023-05-16T00:22:38.710Z,87974.00
2023-05-16T00:23:38.717Z,87972.00
2023-05-16T00:24:38.728Z,87974.00
2023-05-16T00:25:38.721Z,87971.00
2023-05-16T00:26:38.721Z,87969.00
2023-05-16T00:27:38.714Z,87971.00
2023-05-16T00:28:38.714Z,87971.00
2023-05-16T00:29:38.715Z,87972.00
2023-05-16T00:30:38.723Z,87972.00
2023-05-16T00:31:38.755Z,87971.00
2023-05-16T00:32:38.789Z,87972.00
2023-05-16T00:33:38.724Z,87971.00
2023-05-16T00:34:38.887Z,87972.00
2023-05-16T00:35:38.721Z,87972.00
2023-05-16T00:36:38.732Z,87974.00
2023-05-16T00:37:38.737Z,87971.00
2023-05-16T00:38:38.728Z,87972.00
2023-05-16T00:39:38.734Z,87969.00
2023-05-16T00:40:38.734Z,87967.00
2023-05-16T00:41:38.729Z,87967.00
2023-05-16T00:42:38.737Z,87967.00
2023-05-16T00:43:38.721Z,87958.00
2023-05-16T00:44:38.722Z,87958.00
2023-05-16T00:45:38.751Z,87965.00
2023-05-16T00:46:38.872Z,87956.00
2023-05-16T00:47:38.854Z,87956.00
2023-05-16T00:48:38.772Z,87952.00
2023-05-16T00:49:38.785Z,87952.00
2023-05-16T00:50:38.793Z,87952.00
2023-05-16T00:51:38.796Z,87954.00
2023-05-16T00:52:38.817Z,87952.00
2023-05-16T00:53:38.829Z,87952.00
2023-05-16T00:54:38.854Z,87958.00
2023-05-16T00:55:38.862Z,87952.00
2023-05-16T00:56:38.872Z,87954.00
2023-05-16T00:57:38.880Z,87952.00
2023-05-16T00:58:38.900Z,87954.00
2023-05-16T00:59:38.912Z,87954.00
2023-05-16T01:00:38.939Z,87952.00
2023-05-16T01:01:38.991Z,87952.00
2023-05-16T01:02:39.052Z,87950.00
2023-05-16T01:03:39.079Z,87950.00
2023-05-16T01:04:38.949Z,87948.00
2023-05-16T01:05:38.949Z,87948.00
2023-05-16T01:06:38.956Z,87946.00
2023-05-16T01:07:38.964Z,87942.00
2023-05-16T01:08:38.970Z,87942.00
2023-05-16T01:09:38.981Z,87940.00
2023-05-16T01:10:38.995Z,87936.00
2023-05-16T01:11:38.996Z,87938.00
2023-05-16T01:12:38.997Z,87938.00
2023-05-16T01:13:39.002Z,87934.00
2023-05-16T01:14:39.033Z,87936.00
2023-05-16T01:15:39.038Z,87938.00
2023-05-16T01:16:39.186Z,87936.00
2023-05-16T01:17:39.065Z,87936.00
2023-05-16T01:18:39.080Z,87938.00
2023-05-16T01:19:39.064Z,87938.00
2023-05-16T01:20:39.107Z,87938.00
2023-05-16T01:21:39.086Z,87936.00
2023-05-16T01:22:39.090Z,87936.00
2023-05-16T01:23:39.093Z,87934.00
2023-05-16T01:24:39.099Z,87934.00
2023-05-16T01:25:39.113Z,87936.00
2023-05-16T01:26:39.127Z,87936.00
2023-05-16T01:27:39.115Z,87938.00
2023-05-16T01:28:39.140Z,87938.00
2023-05-16T01:29:39.136Z,87934.00
2023-05-16T01:30:39.157Z,87936.00
2023-05-16T01:31:39.241Z,87934.00
2023-05-16T01:32:39.186Z,87936.00
2023-05-16T01:33:39.192Z,87934.00
2023-05-16T01:34:39.177Z,87934.00
2023-05-16T01:35:39.193Z,87934.00
2023-05-16T01:36:39.203Z,87932.00
2023-05-16T01:37:39.205Z,87934.00
2023-05-16T01:38:39.196Z,87932.00
2023-05-16T01:39:39.214Z,87934.00
2023-05-16T01:40:39.231Z,87932.00
2023-05-16T01:41:39.223Z,87932.00
2023-05-16T01:42:39.215Z,87930.00
2023-05-16T01:43:39.218Z,87928.00
2023-05-16T01:44:39.227Z,87930.00
2023-05-16T01:45:39.243Z,87930.00
2023-05-16T01:46:39.243Z,87930.00
2023-05-16T01:47:39.266Z,87930.00
2023-05-16T01:48:39.224Z,87928.00
2023-05-16T01:49:39.252Z,87930.00
2023-05-16T01:50:39.218Z,87930.00
2023-05-16T01:51:39.215Z,87926.00
2023-05-16T01:52:39.211Z,87930.00
2023-05-16T01:53:39.245Z,87926.00
2023-05-16T01:54:39.225Z,87928.00
2023-05-16T01:55:39.260Z,87926.00
2023-05-16T01:56:39.232Z,87926.00
2023-05-16T01:57:39.232Z,87928.00
2023-05-16T01:58:39.236Z,87926.00
2023-05-16T01:59:39.260Z,87924.00
2023-05-16T02:00:39.261Z,87926.00
2023-05-16T02:01:39.423Z,87928.00
2023-05-16T02:02:39.292Z,87926.00
2023-05-16T02:03:39.307Z,87926.00
2023-05-16T02:04:39.248Z,87926.00
2023-05-16T02:05:39.245Z,87922.00
2023-05-16T02:06:39.250Z,87920.00
2023-05-16T02:07:39.257Z,87919.00
2023-05-16T02:08:39.254Z,87917.00
2023-05-16T02:09:39.326Z,87917.00
2023-05-16T02:10:39.264Z,87917.00
2023-05-16T02:11:39.261Z,87915.00
2023-05-16T02:12:39.264Z,87911.00
2023-05-16T02:13:39.265Z,87913.00
2023-05-16T02:14:39.278Z,87913.00
2023-05-16T02:15:39.298Z,87911.00
2023-05-16T02:16:39.385Z,87913.00
2023-05-16T02:17:39.371Z,87915.00
2023-05-16T02:18:39.436Z,87913.00
2023-05-16T02:19:39.382Z,87911.00
2023-05-16T02:20:39.409Z,87911.00
2023-05-16T02:21:39.425Z,87913.00
2023-05-16T02:22:39.426Z,87913.00
2023-05-16T02:23:39.438Z,87913.00
2023-05-16T02:24:39.441Z,87913.00
2023-05-16T02:25:39.444Z,87915.00
2023-05-16T02:26:39.429Z,87911.00
2023-05-16T02:27:39.438Z,87913.00
2023-05-16T02:28:39.442Z,87915.00
2023-05-16T02:29:39.429Z,87915.00
2023-05-16T02:30:39.485Z,87913.00
2023-05-16T02:31:39.599Z,87915.00
2023-05-16T02:32:39.471Z,87911.00
2023-05-16T02:33:39.424Z,87911.00
2023-05-16T02:34:39.432Z,87909.00
2023-05-16T02:35:39.434Z,87911.00
2023-05-16T02:36:39.434Z,87909.00
2023-05-16T02:37:39.415Z,87909.00
2023-05-16T02:38:39.416Z,87909.00
2023-05-16T02:39:39.444Z,87909.00
2023-05-16T02:40:39.421Z,87911.00
2023-05-16T02:41:39.419Z,87909.00
2023-05-16T02:42:39.426Z,87907.00
2023-05-16T02:43:39.423Z,87907.00
2023-05-16T02:44:39.429Z,87905.00
2023-05-16T02:45:39.422Z,87903.00
2023-05-16T02:46:39.483Z,87901.00
2023-05-16T02:47:39.463Z,87901.00
2023-05-16T02:48:39.436Z,87899.00
2023-05-16T02:49:39.453Z,87897.00
2023-05-16T02:50:39.435Z,87897.00
2023-05-16T02:51:39.445Z,87895.00
2023-05-16T02:52:39.449Z,87899.00
2023-05-16T02:53:39.440Z,87895.00
2023-05-16T02:54:39.445Z,87899.00
2023-05-16T02:55:39.633Z,87891.00
2023-05-16T02:56:39.445Z,87889.00
2023-05-16T02:57:39.454Z,87885.00
2023-05-16T02:58:39.454Z,87881.00
2023-05-16T02:59:39.449Z,87883.00
2023-05-16T03:00:39.453Z,87883.00
2023-05-16T03:01:39.544Z,87887.00
2023-05-16T03:02:39.654Z,87885.00
2023-05-16T03:03:39.666Z,87881.00
2023-05-16T03:04:39.582Z,87881.00
2023-05-16T03:05:39.616Z,87881.00
2023-05-16T03:06:39.645Z,87879.00
2023-05-16T03:07:39.703Z,87875.00
2023-05-16T03:08:39.761Z,87873.00
2023-05-16T03:09:39.799Z,87871.00
2023-05-16T03:10:39.866Z,87869.00
2023-05-16T03:11:39.910Z,87871.00
2023-05-16T03:12:39.949Z,87871.00
2023-05-16T03:13:39.983Z,87869.00
2023-05-16T03:14:40.024Z,87871.00
2023-05-16T03:15:40.023Z,87871.00
2023-05-16T03:16:40.106Z,87873.00
2023-05-16T03:17:40.090Z,87869.00
2023-05-16T03:18:40.080Z,87871.00
2023-05-16T03:19:40.061Z,87871.00
2023-05-16T03:20:40.084Z,87873.00
2023-05-16T03:21:40.084Z,87871.00
2023-05-16T03:22:40.104Z,87869.00
2023-05-16T03:23:40.137Z,87865.00
2023-05-16T03:24:40.181Z,87865.00
2023-05-16T03:25:40.185Z,87863.00
2023-05-16T03:26:40.197Z,87863.00
2023-05-16T03:27:40.213Z,87865.00
2023-05-16T03:28:40.249Z,87863.00
2023-05-16T03:29:40.278Z,87863.00
2023-05-16T03:30:40.315Z,87861.00
2023-05-16T03:31:40.390Z,87863.00
2023-05-16T03:32:40.425Z,87863.00
2023-05-16T03:33:40.444Z,87863.00
2023-05-16T03:34:40.480Z,87861.00
2023-05-16T03:35:40.532Z,87856.00
2023-05-16T03:36:40.584Z,87857.00
2023-05-16T03:37:40.624Z,87861.00
2023-05-16T03:38:40.685Z,87859.00
2023-05-16T03:39:40.742Z,87857.00
2023-05-16T03:40:40.804Z,87857.00
2023-05-16T03:41:40.852Z,87857.00
2023-05-16T03:42:40.903Z,87859.00
2023-05-16T03:43:40.954Z,87861.00
2023-05-16T03:44:40.965Z,87859.00
2023-05-16T03:45:41.003Z,87859.00
2023-05-16T03:46:40.995Z,87857.00
2023-05-16T03:47:41.103Z,87857.00
2023-05-16T03:48:41.018Z,87856.00
2023-05-16T03:49:41.020Z,87859.00
2023-05-16T03:50:41.293Z,87857.00
2023-05-16T03:51:41.042Z,87859.00
2023-05-16T03:52:41.057Z,87857.00
2023-05-16T03:53:41.060Z,87859.00
2023-05-16T03:54:41.070Z,87861.00
2023-05-16T03:55:41.111Z,87863.00
2023-05-16T03:56:41.156Z,87859.00
2023-05-16T03:57:41.226Z,87857.00
2023-05-16T03:58:41.232Z,87856.00
2023-05-16T03:59:41.276Z,87863.00
2023-05-16T04:00:41.246Z,87856.00
2023-05-16T04:01:41.293Z,87856.00
2023-05-16T04:02:41.443Z,87857.00
2023-05-16T04:03:41.280Z,87854.00
2023-05-16T04:04:41.296Z,87854.00
2023-05-16T04:05:41.395Z,87854.00
2023-05-16T04:06:41.319Z,87854.00
2023-05-16T04:07:41.329Z,87854.00
2023-05-16T04:08:41.337Z,87852.00
2023-05-16T04:09:41.359Z,87852.00
2023-05-16T04:10:41.379Z,87848.00
2023-05-16T04:11:41.405Z,87846.00
2023-05-16T04:12:41.398Z,87844.00
2023-05-16T04:13:41.431Z,87842.00
2023-05-16T04:14:41.422Z,87842.00
2023-05-16T04:15:41.435Z,87842.00
2023-05-16T04:16:41.534Z,87842.00
2023-05-16T04:17:41.633Z,87842.00
2023-05-16T04:18:41.715Z,87840.00
2023-05-16T04:19:41.751Z,87844.00
2023-05-16T04:20:41.826Z,87846.00
2023-05-16T04:21:41.890Z,87842.00
2023-05-16T04:22:41.990Z,87846.00
2023-05-16T04:23:42.045Z,87846.00
2023-05-16T04:24:42.119Z,87846.00
2023-05-16T04:25:42.203Z,87850.00
2023-05-16T04:26:42.261Z,87850.00
2023-05-16T04:27:42.341Z,87844.00
2023-05-16T04:28:42.401Z,87846.00
2023-05-16T04:29:42.489Z,87850.00
2023-05-16T04:30:42.577Z,87852.00
2023-05-16T04:31:42.661Z,87852.00
2023-05-16T04:32:42.735Z,87854.00
2023-05-16T04:33:42.741Z,87854.00
2023-05-16T04:34:42.745Z,87856.00
2023-05-16T04:35:42.759Z,87857.00
2023-05-16T04:36:42.800Z,87857.00
2023-05-16T04:37:42.823Z,87856.00
2023-05-16T04:38:42.824Z,87856.00
2023-05-16T04:39:42.837Z,87854.00
2023-05-16T04:40:42.858Z,87854.00
2023-05-16T04:41:42.831Z,87854.00
2023-05-16T04:42:42.847Z,87854.00
2023-05-16T04:43:42.920Z,87859.00
2023-05-16T04:44:42.974Z,87859.00
2023-05-16T04:45:43.077Z,87863.00
2023-05-16T04:46:43.141Z,87861.00
2023-05-16T04:47:43.152Z,87865.00
2023-05-16T04:48:43.210Z,87865.00
2023-05-16T04:49:43.272Z,87865.00
2023-05-16T04:50:43.323Z,87867.00
2023-05-16T04:51:43.392Z,87865.00
2023-05-16T04:52:43.427Z,87865.00
2023-05-16T04:53:43.508Z,87863.00
2023-05-16T04:54:43.552Z,87865.00
2023-05-16T04:55:43.610Z,87861.00
2023-05-16T04:56:43.608Z,87863.00
2023-05-16T04:57:43.624Z,87865.00
2023-05-16T04:58:43.629Z,87863.00
2023-05-16T04:59:43.642Z,87863.00
2023-05-16T05:00:43.649Z,87865.00
2023-05-16T05:01:43.709Z,87863.00
2023-05-16T05:02:43.731Z,87861.00
2023-05-16T05:03:44.669Z,87859.00
2023-05-16T05:04:43.714Z,87861.00
2023-05-16T05:05:43.722Z,87857.00
2023-05-16T05:06:43.730Z,87859.00
2023-05-16T05:07:43.753Z,87856.00
2023-05-16T05:08:43.750Z,87861.00
2023-05-16T05:09:43.773Z,87859.00
2023-05-16T05:10:43.770Z,87859.00
2023-05-16T05:11:43.790Z,87857.00
2023-05-16T05:12:43.787Z,87856.00
2023-05-16T05:13:43.798Z,87857.00
2023-05-16T05:14:43.826Z,87852.00
2023-05-16T05:15:43.835Z,87848.00
2023-05-16T05:16:43.844Z,87848.00
2023-05-16T05:17:43.920Z,87848.00
2023-05-16T05:18:43.889Z,87848.00
2023-05-16T05:19:43.949Z,87852.00
2023-05-16T05:20:43.866Z,87854.00
2023-05-16T05:21:43.884Z,87854.00
2023-05-16T05:22:43.890Z,87856.00
2023-05-16T05:23:43.915Z,87854.00
2023-05-16T05:24:43.921Z,87856.00
2023-05-16T05:25:43.925Z,87854.00
2023-05-16T05:26:43.928Z,87857.00
2023-05-16T05:27:43.934Z,87857.00
2023-05-16T05:29:43.949Z,87856.00
2023-05-16T05:30:43.968Z,87857.00
2023-05-16T05:31:43.979Z,87854.00
2023-05-16T05:32:44.037Z,87850.00
2023-05-16T05:33:44.042Z,87846.00
2023-05-16T05:34:43.994Z,87848.00
2023-05-16T05:35:44.058Z,87848.00
2023-05-16T05:36:44.028Z,87846.00
2023-05-16T05:37:44.036Z,87848.00
2023-05-16T05:38:44.049Z,87846.00
2023-05-16T05:39:44.080Z,87846.00
2023-05-16T05:40:44.085Z,87846.00
2023-05-16T05:41:44.100Z,87848.00
2023-05-16T05:42:46.177Z,87848.00
2023-05-16T05:43:44.289Z,87846.00
2023-05-16T05:44:44.122Z,87846.00
2023-05-16T05:45:44.291Z,87848.00
2023-05-16T05:46:44.170Z,87846.00
2023-05-16T05:47:44.209Z,87848.00
2023-05-16T05:48:44.297Z,87846.00
2023-05-16T05:49:44.207Z,87846.00
2023-05-16T05:50:44.185Z,87844.00
2023-05-16T05:51:44.245Z,87840.00
2023-05-16T05:52:44.242Z,87842.00
2023-05-16T05:53:44.223Z,87840.00
2023-05-16T05:54:44.270Z,87838.00
2023-05-16T05:55:44.255Z,87836.00
2023-05-16T05:56:44.241Z,87836.00
2023-05-16T05:57:44.225Z,87836.00
2023-05-16T05:58:44.228Z,87836.00
2023-05-16T05:59:44.221Z,87836.00
2023-05-16T06:00:44.239Z,87838.00
2023-05-16T06:01:44.270Z,87838.00
2023-05-16T06:02:44.346Z,87838.00
2023-05-16T06:03:44.253Z,87842.00
2023-05-16T06:04:44.241Z,87846.00
2023-05-16T06:05:44.388Z,87850.00
2023-05-16T06:06:44.254Z,87854.00
2023-05-16T06:07:44.261Z,87848.00
2023-05-16T06:08:44.251Z,87852.00
2023-05-16T06:09:44.255Z,87846.00
2023-05-16T06:10:44.267Z,87848.00
2023-05-16T06:11:44.252Z,87844.00
2023-05-16T06:12:44.260Z,87842.00
2023-05-16T06:13:44.272Z,87840.00
2023-05-16T06:14:44.256Z,87842.00
2023-05-16T06:15:44.266Z,87844.00
2023-05-16T06:16:44.298Z,87838.00
2023-05-16T06:17:44.306Z,87840.00
2023-05-16T06:18:44.318Z,87842.00
2023-05-16T06:19:44.282Z,87840.00
2023-05-16T06:20:44.263Z,87842.00
2023-05-16T06:21:44.323Z,87842.00
2023-05-16T06:22:44.266Z,87844.00
2023-05-16T06:23:44.279Z,87842.00
2023-05-16T06:24:44.281Z,87846.00
2023-05-16T06:25:44.280Z,87844.00
2023-05-16T06:26:44.289Z,87840.00
2023-05-16T06:27:44.322Z,87846.00
2023-05-16T06:28:44.355Z,87842.00
2023-05-16T06:29:44.382Z,87838.00
2023-05-16T06:30:44.369Z,87838.00
2023-05-16T06:31:44.460Z,87834.00
2023-05-16T06:32:44.404Z,87838.00
2023-05-16T06:33:44.422Z,87836.00
2023-05-16T06:34:44.397Z,87834.00
2023-05-16T06:35:44.404Z,87830.00
2023-05-16T06:36:44.399Z,87832.00
2023-05-16T06:37:44.394Z,87836.00
2023-05-16T06:38:44.403Z,87836.00
2023-05-16T06:39:44.472Z,87834.00
2023-05-16T06:40:44.410Z,87830.00
2023-05-16T06:41:44.423Z,87832.00
2023-05-16T06:42:44.411Z,87828.00
2023-05-16T06:43:44.448Z,87826.00
2023-05-16T06:44:44.437Z,87826.00
2023-05-16T06:45:44.449Z,87824.00
2023-05-16T06:46:44.502Z,87826.00
2023-05-16T06:47:44.485Z,87818.00
2023-05-16T06:48:44.460Z,87820.00
2023-05-16T06:49:44.465Z,87820.00
2023-05-16T06:50:44.497Z,87828.00
2023-05-16T06:51:44.517Z,87826.00
2023-05-16T06:52:44.512Z,87826.00
2023-05-16T06:53:44.554Z,87828.00
2023-05-16T06:54:44.531Z,87828.00
2023-05-16T06:55:44.546Z,87830.00
2023-05-16T06:56:44.543Z,87832.00
2023-05-16T06:57:44.550Z,87828.00
2023-05-16T06:58:44.598Z,87830.00
2023-05-16T06:59:44.617Z,87828.00
2023-05-16T07:00:44.649Z,87832.00
2023-05-16T07:01:44.773Z,87824.00
2023-05-16T07:02:44.760Z,87824.00
2023-05-16T07:03:44.771Z,87828.00
2023-05-16T07:04:44.663Z,87830.00
2023-05-16T07:05:44.660Z,87828.00
2023-05-16T07:06:44.668Z,87826.00
2023-05-16T07:07:44.729Z,87830.00
2023-05-16T07:08:44.669Z,87832.00
2023-05-16T07:09:44.709Z,87824.00
2023-05-16T07:10:44.686Z,87832.00
2023-05-16T07:11:44.667Z,87830.00
2023-05-16T07:12:44.675Z,87836.00
2023-05-16T07:13:44.714Z,87836.00
2023-05-16T07:14:44.688Z,87832.00
2023-05-16T07:15:44.685Z,87832.00
2023-05-16T07:16:44.778Z,87832.00
2023-05-16T07:17:44.748Z,87836.00
2023-05-16T07:18:44.730Z,87834.00
2023-05-16T07:19:44.721Z,87830.00
2023-05-16T07:20:44.730Z,87832.00
2023-05-16T07:21:44.725Z,87830.00
2023-05-16T07:22:44.734Z,87836.00
2023-05-16T07:23:44.770Z,87840.00
2023-05-16T07:24:44.805Z,87840.00
2023-05-16T07:25:44.967Z,87838.00
2023-05-16T07:26:44.800Z,87836.00
2023-05-16T07:27:44.825Z,87830.00
2023-05-16T07:28:44.803Z,87828.00
2023-05-16T07:29:44.822Z,87824.00
2023-05-16T07:30:44.839Z,87824.00
2023-05-16T07:31:44.871Z,87822.00
2023-05-16T07:32:44.848Z,87824.00
2023-05-16T07:33:44.819Z,87824.00
2023-05-16T07:34:44.807Z,87820.00
2023-05-16T07:35:44.825Z,87824.00
2023-05-16T07:36:44.809Z,87826.00
2023-05-16T07:37:44.811Z,87834.00
2023-05-16T07:38:44.850Z,87836.00
2023-05-16T07:39:44.815Z,87832.00
2023-05-16T07:40:44.818Z,87838.00
2023-05-16T07:41:44.818Z,87836.00
2023-05-16T07:42:44.844Z,87836.00
2023-05-16T07:43:44.819Z,87836.00
2023-05-16T07:44:44.825Z,87836.00
2023-05-16T07:45:44.856Z,87834.00
2023-05-16T07:46:45.119Z,87836.00
2023-05-16T07:47:44.882Z,87838.00
2023-05-16T07:48:44.916Z,87836.00
2023-05-16T07:49:45.066Z,87842.00
2023-05-16T07:50:46.911Z,87842.00
2023-05-16T07:51:45.023Z,87842.00
2023-05-16T07:52:45.043Z,87840.00
2023-05-16T07:53:45.034Z,87838.00
2023-05-16T07:54:45.021Z,87838.00
2023-05-16T07:55:45.022Z,87838.00
2023-05-16T07:56:45.016Z,87836.00
2023-05-16T07:57:45.027Z,87838.00
2023-05-16T07:58:45.044Z,87838.00
2023-05-16T07:59:45.148Z,87838.00
2023-05-16T08:00:45.031Z,87836.00
2023-05-16T08:01:45.024Z,87836.00
2023-05-16T08:02:45.107Z,87836.00
2023-05-16T08:03:45.140Z,87834.00
2023-05-16T08:04:45.020Z,87834.00
2023-05-16T08:05:45.229Z,87834.00
2023-05-16T08:06:45.030Z,87832.00
2023-05-16T08:07:45.031Z,87832.00
2023-05-16T08:08:45.064Z,87832.00
2023-05-16T08:09:45.024Z,87828.00
2023-05-16T08:10:45.018Z,87830.00
2023-05-16T08:11:45.022Z,87830.00
2023-05-16T08:12:45.034Z,87832.00
2023-05-16T08:13:45.017Z,87830.00
2023-05-16T08:14:45.009Z,87830.00
2023-05-16T08:15:45.104Z,87834.00
2023-05-16T08:16:45.207Z,87832.00
2023-05-16T08:17:45.067Z,87834.00
2023-05-16T08:18:45.076Z,87834.00
2023-05-16T08:19:45.015Z,87830.00
2023-05-16T08:20:45.018Z,87830.00
2023-05-16T08:21:45.003Z,87828.00
2023-05-16T08:22:45.003Z,87828.00
2023-05-16T08:23:45.009Z,87826.00
2023-05-16T08:24:45.019Z,87828.00
2023-05-16T08:25:45.023Z,87828.00
2023-05-16T08:26:45.014Z,87828.00
2023-05-16T08:27:44.999Z,87828.00
2023-05-16T08:28:44.997Z,87830.00
2023-05-16T08:29:45.018Z,87830.00
2023-05-16T08:30:47.182Z,87828.00
2023-05-16T08:31:45.028Z,87828.00
2023-05-16T08:32:44.999Z,87830.00
2023-05-16T08:33:44.970Z,87832.00
2023-05-16T08:34:45.211Z,87832.00
2023-05-16T08:35:44.984Z,87826.00
2023-05-16T08:36:44.983Z,87824.00
2023-05-16T08:37:44.988Z,87824.00
2023-05-16T08:38:44.989Z,87822.00
2023-05-16T08:39:44.961Z,87824.00
2023-05-16T08:40:44.959Z,87830.00
2023-05-16T08:41:44.962Z,87824.00
2023-05-16T08:42:45.463Z,87822.00
2023-05-16T08:43:44.939Z,87822.00
2023-05-16T08:44:44.987Z,87822.00
2023-05-16T08:45:44.977Z,87820.00
2023-05-16T08:46:44.956Z,87820.00
2023-05-16T08:47:44.995Z,87818.00
2023-05-16T08:48:44.968Z,87816.00
2023-05-16T08:49:44.937Z,87816.00
2023-05-16T08:50:44.936Z,87809.00
2023-05-16T08:51:45.003Z,87809.00
2023-05-16T08:52:44.951Z,87810.00
2023-05-16T08:53:44.931Z,87814.00
2023-05-16T08:54:45.807Z,87818.00
2023-05-16T08:55:44.892Z,87818.00
2023-05-16T08:56:44.917Z,87824.00
2023-05-16T08:57:44.899Z,87824.00
2023-05-16T08:58:44.880Z,87828.00
2023-05-16T08:59:44.864Z,87828.00
2023-05-16T09:00:44.905Z,87832.00
2023-05-16T09:01:44.913Z,87836.00
2023-05-16T09:02:44.933Z,87834.00
2023-05-16T09:03:44.872Z,87830.00
2023-05-16T09:04:44.841Z,87830.00
2023-05-16T09:05:44.832Z,87836.00
2023-05-16T09:06:44.827Z,87836.00
2023-05-16T09:07:44.828Z,87836.00
2023-05-16T09:08:44.842Z,87842.00
2023-05-16T09:09:44.834Z,87844.00
2023-05-16T09:10:44.818Z,87838.00
2023-05-16T09:11:44.826Z,87842.00
2023-05-16T09:12:44.819Z,87838.00
2023-05-16T09:13:44.820Z,87838.00
2023-05-16T09:14:44.810Z,87840.00
2023-05-16T09:15:44.792Z,87838.00
2023-05-16T09:16:44.861Z,87836.00
2023-05-16T09:17:45.168Z,87830.00
2023-05-16T09:18:44.900Z,87832.00
2023-05-16T09:19:44.820Z,87830.00
2023-05-16T09:20:44.751Z,87830.00
2023-05-16T09:21:44.734Z,87834.00
2023-05-16T09:22:44.718Z,87838.00
2023-05-16T09:23:44.717Z,87836.00
2023-05-16T09:24:44.708Z,87838.00
2023-05-16T09:25:44.692Z,87840.00
2023-05-16T09:26:44.760Z,87840.00
2023-05-16T09:27:44.838Z,87838.00
2023-05-16T09:28:44.954Z,87840.00
2023-05-16T09:29:44.938Z,87842.00
2023-05-16T09:30:44.998Z,87846.00
2023-05-16T09:31:45.040Z,87846.00
2023-05-16T09:32:45.112Z,87846.00
2023-05-16T09:33:45.063Z,87846.00
2023-05-16T09:34:45.065Z,87850.00
2023-05-16T09:35:45.830Z,87854.00
2023-05-16T09:36:45.048Z,87850.00
2023-05-16T09:37:45.073Z,87854.00
2023-05-16T09:38:45.051Z,87856.00
2023-05-16T09:39:45.058Z,87854.00
2023-05-16T09:40:45.098Z,87856.00
2023-05-16T09:41:45.106Z,87857.00
2023-05-16T09:42:45.142Z,87856.00
2023-05-16T09:43:45.196Z,87857.00
2023-05-16T09:44:45.280Z,87854.00
2023-05-16T09:45:45.317Z,87856.00
2023-05-16T09:46:45.396Z,87857.00
2023-05-16T09:47:45.421Z,87859.00
2023-05-16T09:48:45.425Z,87857.00
2023-05-16T09:49:45.657Z,87857.00
2023-05-16T09:50:45.517Z,87856.00
2023-05-16T09:51:45.560Z,87857.00
2023-05-16T09:52:45.620Z,87861.00
2023-05-16T09:53:45.660Z,87857.00
2023-05-16T09:54:47.471Z,87857.00
2023-05-16T09:55:45.795Z,87859.00
2023-05-16T09:56:45.864Z,87857.00
2023-05-16T09:57:45.877Z,87856.00
2023-05-16T09:58:45.919Z,87856.00
2023-05-16T09:59:45.944Z,87859.00
2023-05-16T10:00:45.983Z,87861.00
2023-05-16T10:01:46.022Z,87857.00
2023-05-16T10:02:46.078Z,87859.00
2023-05-16T10:03:46.067Z,87863.00
2023-05-16T10:04:45.986Z,87865.00
2023-05-16T10:05:46.089Z,87863.00
2023-05-16T10:06:46.010Z,87859.00
2023-05-16T10:07:45.994Z,87861.00
2023-05-16T10:08:45.985Z,87861.00
2023-05-16T10:09:45.973Z,87859.00
2023-05-16T10:10:46.004Z,87857.00
2023-05-16T10:11:46.001Z,87856.00
2023-05-16T10:12:45.980Z,87856.00
2023-05-16T10:13:45.966Z,87857.00
2023-05-16T10:14:45.980Z,87856.00
2023-05-16T10:15:45.971Z,87857.00
2023-05-16T10:16:46.045Z,87857.00
2023-05-16T10:17:46.015Z,87852.00
2023-05-16T10:18:46.000Z,87850.00
2023-05-16T10:19:45.972Z,87850.00
2023-05-16T10:20:45.976Z,87850.00
2023-05-16T10:21:46.608Z,87852.00
2023-05-16T10:22:45.982Z,87856.00
2023-05-16T10:23:45.986Z,87856.00
2023-05-16T10:24:45.995Z,87857.00
2023-05-16T10:25:46.001Z,87856.00
2023-05-16T10:26:46.025Z,87859.00
2023-05-16T10:27:46.012Z,87861.00
2023-05-16T10:28:46.004Z,87859.00
2023-05-16T10:29:54.264Z,87861.00
2023-05-16T10:30:47.028Z,87861.00
2023-05-16T10:31:46.059Z,87861.00
2023-05-16T10:32:46.012Z,87863.00
2023-05-16T10:33:45.996Z,87861.00
2023-05-16T10:34:45.990Z,87861.00
2023-05-16T10:35:45.988Z,87863.00
2023-05-16T10:36:46.009Z,87863.00
2023-05-16T10:37:46.028Z,87867.00
2023-05-16T10:38:46.051Z,87863.00
2023-05-16T10:39:46.030Z,87865.00
2023-05-16T10:40:46.068Z,87865.00
2023-05-16T10:41:46.067Z,87861.00
2023-05-16T10:42:46.091Z,87863.00
2023-05-16T10:43:46.122Z,87859.00
2023-05-16T10:44:54.619Z,87861.00
2023-05-16T10:45:47.211Z,87867.00
2023-05-16T10:46:46.168Z,87865.00
2023-05-16T10:47:46.227Z,87867.00
2023-05-16T10:48:46.159Z,87863.00
2023-05-16T10:49:46.164Z,87865.00
2023-05-16T10:50:46.167Z,87871.00
2023-05-16T10:51:46.190Z,87869.00
2023-05-16T10:52:46.168Z,87869.00
2023-05-16T10:53:46.459Z,87869.00
2023-05-16T10:54:46.172Z,87871.00
2023-05-16T10:55:46.174Z,87869.00
2023-05-16T10:56:46.183Z,87867.00
2023-05-16T10:57:46.186Z,87869.00
2023-05-16T10:58:46.176Z,87863.00
2023-05-16T10:59:46.189Z,87867.00
2023-05-16T11:00:46.187Z,87867.00
2023-05-16T11:01:46.405Z,87861.00
2023-05-16T11:02:46.361Z,87865.00
2023-05-16T11:03:46.357Z,87861.00
2023-05-16T11:04:46.225Z,87863.00
2023-05-16T11:05:46.243Z,87863.00
2023-05-16T11:06:46.269Z,87863.00
2023-05-16T11:07:46.266Z,87861.00
2023-05-16T11:08:46.306Z,87861.00
2023-05-16T11:09:46.378Z,87859.00
2023-05-16T11:10:46.372Z,87857.00
2023-05-16T11:11:48.599Z,87861.00
2023-05-16T11:12:46.461Z,87861.00
2023-05-16T11:13:46.473Z,87859.00
2023-05-16T11:14:46.496Z,87857.00
2023-05-16T11:15:46.497Z,87856.00
2023-05-16T11:16:46.538Z,87854.00
2023-05-16T11:17:46.610Z,87859.00
2023-05-16T11:18:46.587Z,87856.00
2023-05-16T11:19:46.541Z,87857.00
2023-05-16T11:20:46.579Z,87854.00
2023-05-16T11:21:46.577Z,87857.00
2023-05-16T11:22:46.584Z,87859.00
2023-05-16T11:23:46.595Z,87857.00
2023-05-16T11:24:46.612Z,87857.00
2023-05-16T11:25:46.659Z,87856.00
2023-05-16T11:26:46.636Z,87859.00
2023-05-16T11:27:46.647Z,87856.00
2023-05-16T11:28:46.641Z,87859.00
2023-05-16T11:29:46.668Z,87856.00
2023-05-16T11:30:46.680Z,87857.00
2023-05-16T11:31:46.732Z,87857.00
2023-05-16T11:32:46.753Z,87857.00
2023-05-16T11:33:46.682Z,87856.00
2023-05-16T11:34:46.750Z,87856.00
2023-05-16T11:35:46.823Z,87856.00
2023-05-16T11:36:46.877Z,87856.00
2023-05-16T11:37:47.103Z,87852.00
2023-05-16T11:38:46.989Z,87852.00
2023-05-16T11:39:47.104Z,87852.00
2023-05-16T11:40:47.093Z,87850.00
2023-05-16T11:41:48.889Z,87844.00
2023-05-16T11:42:47.195Z,87842.00
2023-05-16T11:43:47.252Z,87844.00
2023-05-16T11:44:47.306Z,87844.00
2023-05-16T11:45:47.336Z,87842.00